X  Zatvori METAR podaci zračne luke        LYNI Nis Airport
Temperatura
35°C Temperatura
13°C Točka rosišta
27% Vlaga



Vjetar
8 MPS
13 KM/S
4 M/S
7 Čvorovi



80°
I
Trenutna situacija

Mostly Sunny Većinom sunčano
Tlak zraka 1009 (hPa) - 29.8 (inHg)
Vidljivost 6 (milje) - 10 (km)
Zračna luka
Kôd zračne luke LYNI

Lokacija: Nis Airport
Udaljenost: 63 (mi)

Metar:
METAR LYNI 121700Z 08007KT CAVOK 35/13 Q1011 NOSIG

Vrijeme: 12-07-2024 19:00 CEST